createdAt,value
2017-05-19T00:00:15.982Z,0
2017-05-19T00:01:16.260Z,0
2017-05-19T00:02:31.199Z,0
2017-05-19T00:03:16.298Z,0
2017-05-19T00:04:16.345Z,0
2017-05-19T00:05:16.355Z,0
2017-05-19T00:06:16.676Z,0
2017-05-19T00:07:16.708Z,0
2017-05-19T00:08:16.429Z,0
2017-05-19T00:09:16.791Z,0
2017-05-19T00:10:16.486Z,0
2017-05-19T00:11:16.826Z,0
2017-05-19T00:12:16.528Z,0
2017-05-19T00:13:16.575Z,0
2017-05-19T00:14:16.890Z,0
2017-05-19T00:15:16.609Z,0
2017-05-19T00:16:16.950Z,0
2017-05-19T00:17:16.348Z,0
2017-05-19T00:18:31.303Z,0
2017-05-19T00:19:16.726Z,0
2017-05-19T00:20:16.744Z,0
2017-05-19T00:21:16.471Z,0
2017-05-19T00:22:17.103Z,0
2017-05-19T00:24:16.837Z,0
2017-05-19T00:25:31.781Z,0
2017-05-19T00:26:16.899Z,0
2017-05-19T00:27:31.543Z,0
2017-05-19T00:28:16.944Z,0
2017-05-19T00:29:31.893Z,0
2017-05-19T00:30:31.903Z,0
2017-05-19T00:31:17.330Z,0
2017-05-19T00:32:17.347Z,0
2017-05-19T00:33:17.079Z,0
2017-05-19T00:34:31.701Z,0
2017-05-19T00:35:17.121Z,0
2017-05-19T00:36:17.160Z,0
2017-05-19T00:37:16.872Z,0
2017-05-19T00:38:17.511Z,0
2017-05-19T00:39:16.930Z,0
2017-05-19T00:41:17.271Z,0
2017-05-19T00:42:17.613Z,0
2017-05-19T00:43:17.318Z,0
2017-05-19T00:44:17.667Z,0
2017-05-19T00:45:31.991Z,0
2017-05-19T00:46:17.706Z,0
2017-05-19T00:47:17.422Z,0
2017-05-19T00:48:17.462Z,0
2017-05-19T00:49:32.411Z,0
2017-05-19T00:50:17.823Z,0
2017-05-19T00:51:17.846Z,0
2017-05-19T00:52:17.866Z,0
2017-05-19T00:53:32.509Z,0
2017-05-19T00:54:17.611Z,0
2017-05-19T00:55:17.952Z,0
2017-05-19T00:56:17.970Z,0
2017-05-19T00:57:32.607Z,0
2017-05-19T00:58:18.013Z,0
2017-05-19T00:59:18.044Z,0
2017-05-19T01:00:32.687Z,0
2017-05-19T01:01:32.702Z,0
2017-05-19T01:02:17.806Z,0
2017-05-19T01:03:17.530Z,0
2017-05-19T01:04:17.848Z,0
2017-05-19T01:05:18.194Z,0
2017-05-19T01:06:17.923Z,0
2017-05-19T01:07:32.867Z,0
2017-05-19T01:08:18.260Z,0
2017-05-19T01:09:32.915Z,0
2017-05-19T01:10:18.318Z,0
2017-05-19T01:11:18.037Z,0
2017-05-19T01:12:18.076Z,0
2017-05-19T01:13:18.089Z,0
2017-05-19T01:14:18.428Z,0
2017-05-19T01:15:18.131Z,0
2017-05-19T01:16:18.470Z,0
2017-05-19T01:17:18.518Z,0
2017-05-19T01:18:18.515Z,0
2017-05-19T01:19:17.938Z,0
2017-05-19T01:20:33.198Z,0
2017-05-19T01:21:33.213Z,0
2017-05-19T01:23:18.655Z,0
2017-05-19T01:24:18.676Z,0
2017-05-19T01:25:18.679Z,0
2017-05-19T01:26:18.420Z,0
2017-05-19T01:27:18.429Z,0
2017-05-19T01:28:18.769Z,0
2017-05-19T01:29:18.803Z,0
2017-05-19T01:30:18.519Z,0
2017-05-19T01:31:18.854Z,0
2017-05-19T01:32:18.878Z,0
2017-05-19T01:33:18.596Z,0
2017-05-19T01:34:33.535Z,0
2017-05-19T01:35:33.563Z,0
2017-05-19T01:36:18.965Z,0
2017-05-19T01:37:33.621Z,0
2017-05-19T01:38:19.013Z,0
2017-05-19T01:39:19.051Z,0
2017-05-19T01:40:19.062Z,0
2017-05-19T01:41:18.490Z,0
2017-05-19T01:42:19.129Z,0
2017-05-19T01:43:18.840Z,0
2017-05-19T01:44:18.880Z,0
2017-05-19T01:45:18.885Z,0
2017-05-19T01:46:18.620Z,0
2017-05-19T01:47:18.945Z,0
2017-05-19T01:48:18.965Z,0
2017-05-19T01:49:33.913Z,0
2017-05-19T01:50:19.323Z,0
2017-05-19T01:51:18.740Z,0
2017-05-19T01:52:33.989Z,0
2017-05-19T01:53:34.013Z,0
2017-05-19T01:54:19.123Z,0
2017-05-19T01:55:19.152Z,0
2017-05-19T01:56:18.874Z,0
2017-05-19T01:57:19.200Z,0
2017-05-19T01:59:19.243Z,0
2017-05-19T02:00:19.268Z,0
2017-05-19T02:01:34.218Z,0
2017-05-19T02:02:19.622Z,0
2017-05-19T02:03:19.346Z,0
2017-05-19T02:04:19.363Z,0
2017-05-19T02:05:34.300Z,0
2017-05-19T02:06:19.739Z,0
2017-05-19T02:07:19.749Z,0
2017-05-19T02:09:34.412Z,0
2017-05-19T02:10:19.524Z,0
2017-05-19T02:11:19.841Z,0
2017-05-19T02:12:19.864Z,0
2017-05-19T02:14:19.616Z,0
2017-05-19T02:15:19.942Z,0
2017-05-19T02:16:34.274Z,0
2017-05-19T02:17:20.005Z,0
2017-05-19T02:18:20.035Z,4
2017-05-19T02:19:19.746Z,4
2017-05-19T02:20:20.090Z,4
2017-05-19T02:21:34.715Z,0
2017-05-19T02:22:20.130Z,0
2017-05-19T02:23:19.839Z,4
2017-05-19T02:24:34.789Z,4
2017-05-19T02:25:34.512Z,4
2017-05-19T02:26:34.228Z,4
2017-05-19T02:27:19.647Z,4
2017-05-19T02:29:34.921Z,8
2017-05-19T02:30:34.321Z,8
2017-05-19T02:31:20.048Z,8
2017-05-19T02:32:20.079Z,8
2017-05-19T02:33:20.099Z,12
2017-05-19T02:34:19.820Z,12
2017-05-19T02:35:20.139Z,12
2017-05-19T02:36:34.773Z,16
2017-05-19T02:37:20.501Z,20
2017-05-19T02:38:20.523Z,20
2017-05-19T02:39:35.162Z,24
2017-05-19T02:40:20.587Z,28
2017-05-19T02:41:20.599Z,28
2017-05-19T02:42:20.631Z,32
2017-05-19T02:43:35.263Z,40
2017-05-19T02:44:20.381Z,44
2017-05-19T02:45:35.011Z,52
2017-05-19T02:46:20.728Z,56
2017-05-19T02:47:20.445Z,60
2017-05-19T02:48:20.785Z,68
2017-05-19T02:49:20.791Z,76
2017-05-19T02:51:35.145Z,92
2017-05-19T02:52:20.877Z,104
2017-05-19T02:53:20.885Z,112
2017-05-19T02:54:20.934Z,124
2017-05-19T02:55:20.644Z,136
2017-05-19T02:56:35.576Z,152
2017-05-19T02:57:20.998Z,164
2017-05-19T02:58:20.723Z,176
2017-05-19T03:00:20.768Z,212
2017-05-19T03:01:21.106Z,232
2017-05-19T03:02:20.813Z,252
2017-05-19T03:05:35.796Z,328
2017-05-19T03:06:21.213Z,348
2017-05-19T03:07:20.950Z,376
2017-05-19T03:08:20.957Z,408
2017-05-19T03:09:21.287Z,440
2017-05-19T03:10:21.016Z,468
2017-05-19T03:11:21.339Z,504
2017-05-19T03:12:35.987Z,552
2017-05-19T03:13:21.096Z,576
2017-05-19T03:14:21.117Z,620
2017-05-19T03:15:21.141Z,664
2017-05-19T03:16:21.469Z,708
2017-05-19T03:17:21.185Z,752
2017-05-19T03:19:21.227Z,848
2017-05-19T03:20:21.263Z,896
2017-05-19T03:21:21.595Z,952
2017-05-19T03:22:21.313Z,1000
2017-05-19T03:23:21.037Z,1052
2017-05-19T03:24:21.354Z,1104
2017-05-19T03:25:21.375Z,1164
2017-05-19T03:26:21.406Z,1220
2017-05-19T03:27:21.734Z,1276
2017-05-19T03:28:36.375Z,1344
2017-05-19T03:29:21.479Z,1388
2017-05-19T03:30:21.814Z,1444
2017-05-19T03:31:21.542Z,1500
2017-05-19T03:32:21.558Z,1560
2017-05-19T03:33:21.890Z,1620
2017-05-19T03:34:21.928Z,1680
2017-05-19T03:35:21.332Z,1740
2017-05-19T03:36:21.661Z,1804
2017-05-19T03:37:21.994Z,1868
2017-05-19T03:38:36.675Z,1948
2017-05-19T03:39:21.431Z,1992
2017-05-19T03:40:22.049Z,2060
2017-05-19T03:41:22.094Z,2128
2017-05-19T03:42:21.802Z,2192
2017-05-19T03:43:21.820Z,2260
2017-05-19T03:44:36.765Z,2492
2017-05-19T03:45:21.880Z,2504
2017-05-19T03:46:21.911Z,2560
2017-05-19T03:47:21.917Z,2584
2017-05-19T03:48:21.955Z,3100
2017-05-19T03:49:21.970Z,2996
2017-05-19T03:50:22.316Z,2772
2017-05-19T03:51:22.039Z,2916
2017-05-19T03:52:22.362Z,3332
2017-05-19T03:53:22.394Z,4916
2017-05-19T03:54:22.426Z,6008
2017-05-19T03:55:22.436Z,4252
2017-05-19T03:56:22.446Z,3444
2017-05-19T03:57:22.180Z,3800
2017-05-19T03:58:22.202Z,3712
2017-05-19T03:59:36.846Z,4976
2017-05-19T04:00:22.559Z,7892
2017-05-19T04:01:22.274Z,9264
2017-05-19T04:02:22.611Z,6132
2017-05-19T04:03:22.641Z,4464
2017-05-19T04:04:22.647Z,3960
2017-05-19T04:05:22.669Z,4344
2017-05-19T04:06:22.709Z,4560
2017-05-19T04:07:22.745Z,4116
2017-05-19T04:08:22.771Z,4152
2017-05-19T04:09:22.777Z,4308
2017-05-19T04:12:37.472Z,5744
2017-05-19T04:13:22.877Z,5084
2017-05-19T04:14:22.891Z,4968
2017-05-19T04:15:22.927Z,5464
2017-05-19T04:16:22.960Z,5336
2017-05-19T04:17:22.969Z,5080
2017-05-19T04:18:37.639Z,5200
2017-05-19T04:19:23.026Z,5620
2017-05-19T04:20:23.063Z,6016
2017-05-19T04:21:23.088Z,5800
2017-05-19T04:22:22.789Z,5536
2017-05-19T04:23:23.130Z,5596
2017-05-19T04:24:23.149Z,5756
2017-05-19T04:25:22.872Z,5724
2017-05-19T04:26:23.220Z,5824
2017-05-19T04:28:22.944Z,6016
2017-05-19T04:30:23.303Z,6320
2017-05-19T04:31:37.944Z,6428
2017-05-19T04:32:23.038Z,6616
2017-05-19T04:33:23.082Z,7204
2017-05-19T04:34:23.098Z,7664
2017-05-19T04:35:23.439Z,7020
2017-05-19T04:36:23.458Z,6920
2017-05-19T04:37:23.175Z,6984
2017-05-19T04:38:23.200Z,7328
2017-05-19T04:39:23.242Z,7936
2017-05-19T04:40:23.561Z,14964
2017-05-19T04:41:23.589Z,35712
2017-05-19T04:42:23.604Z,47424
2017-05-19T04:43:23.641Z,47328
2017-05-19T04:45:23.695Z,51328
2017-05-19T04:46:38.322Z,51104
2017-05-19T04:47:38.353Z,50048
2017-05-19T04:48:23.769Z,47936
2017-05-19T04:49:38.401Z,46048
2017-05-19T04:50:23.819Z,47264
2017-05-19T04:51:38.455Z,52864
2017-05-19T04:52:23.874Z,54208
2017-05-19T04:54:38.537Z,52608
2017-05-19T04:55:23.657Z,52384
2017-05-19T04:57:23.719Z,51904
2017-05-19T04:58:23.744Z,53312
2017-05-19T04:59:24.381Z,54592
2017-05-19T05:01:23.823Z,51712
2017-05-19T05:02:24.159Z,52512
2017-05-19T05:03:38.808Z,49760
2017-05-19T05:04:24.547Z,51456
2017-05-19T05:05:38.931Z,55168
2017-05-19T05:06:24.290Z,57024
2017-05-19T05:07:24.313Z,58880
2017-05-19T05:08:24.367Z,60832
2017-05-19T05:09:24.088Z,62368
2017-05-19T05:10:24.420Z,64128
2017-05-19T05:11:24.464Z,62112
2017-05-19T05:12:39.110Z,61120
2017-05-19T05:13:24.519Z,61312
2017-05-19T05:15:24.601Z,64608
2017-05-19T05:16:39.243Z,65312
2017-05-19T05:17:24.667Z,64544
2017-05-19T05:18:24.678Z,64128
2017-05-19T05:19:39.333Z,66144
2017-05-19T05:20:24.806Z,66080
2017-05-19T05:21:24.784Z,67872
2017-05-19T05:22:24.841Z,68576
2017-05-19T05:23:24.868Z,67616
2017-05-19T05:24:24.920Z,65664
2017-05-19T05:25:24.934Z,65408
2017-05-19T05:26:39.592Z,68288
2017-05-19T05:27:25.021Z,69664
2017-05-19T05:28:25.050Z,70112
2017-05-19T05:29:25.067Z,69056
2017-05-19T05:30:25.118Z,68896
2017-05-19T05:31:25.157Z,69792
2017-05-19T05:33:25.226Z,67072
2017-05-19T05:34:39.915Z,68128
2017-05-19T05:35:25.296Z,70432
2017-05-19T05:36:25.310Z,71392
2017-05-19T05:37:25.369Z,72608
2017-05-19T05:38:39.712Z,71392
2017-05-19T05:39:25.149Z,70720
2017-05-19T05:41:25.518Z,73728
2017-05-19T05:42:40.155Z,75008
2017-05-19T05:43:25.602Z,74144
2017-05-19T05:44:25.691Z,72864
2017-05-19T05:45:25.649Z,73184
2017-05-19T05:46:40.309Z,71232
2017-05-19T05:47:25.731Z,72032
2017-05-19T05:48:25.774Z,71680
2017-05-19T05:49:25.804Z,71936
2017-05-19T05:50:25.853Z,71104
2017-05-19T05:51:40.487Z,70368
2017-05-19T05:52:25.919Z,68832
2017-05-19T05:53:25.953Z,73504
2017-05-19T05:54:25.979Z,77408
2017-05-19T05:55:26.011Z,80736
2017-05-19T05:56:26.060Z,78912
2017-05-19T05:57:26.098Z,77920
2017-05-19T05:58:26.131Z,77728
2017-05-19T05:59:25.861Z,77792
2017-05-19T06:00:25.895Z,77600
2017-05-19T06:01:25.941Z,76224
2017-05-19T06:02:26.016Z,78336
2017-05-19T06:03:26.029Z,81472
2017-05-19T06:04:26.050Z,80096
2017-05-19T06:05:26.408Z,78944
2017-05-19T06:07:26.176Z,80576
2017-05-19T06:08:26.211Z,80672
2017-05-19T06:09:26.258Z,77504
2017-05-19T06:10:26.262Z,77152
2017-05-19T06:11:26.009Z,76864
2017-05-19T06:12:26.046Z,76960
2017-05-19T06:13:26.091Z,75680
2017-05-19T06:14:41.354Z,77184
2017-05-19T06:15:26.774Z,79552
2017-05-19T06:19:26.624Z,76384
2017-05-19T06:20:26.641Z,75520
2017-05-19T06:21:26.683Z,76096
2017-05-19T06:22:41.642Z,74016
2017-05-19T06:23:26.770Z,72672
2017-05-19T06:24:26.795Z,71264
2017-05-19T06:25:27.142Z,70048
2017-05-19T06:26:26.883Z,72736
2017-05-19T06:27:27.220Z,75744
2017-05-19T06:28:26.949Z,76672
2017-05-19T06:29:27.320Z,79072
2017-05-19T06:30:41.957Z,78688
2017-05-19T06:31:27.358Z,77760
2017-05-19T06:32:27.120Z,77504
2017-05-19T06:33:27.464Z,79648
2017-05-19T06:34:42.104Z,78592
2017-05-19T06:35:27.518Z,73920
2017-05-19T06:36:42.184Z,69184
2017-05-19T06:37:27.619Z,72064
2017-05-19T06:38:42.259Z,77376
2017-05-19T06:39:27.688Z,77632
2017-05-19T06:40:27.706Z,75328
2017-05-19T06:41:27.754Z,71552
2017-05-19T06:42:27.478Z,72224
2017-05-19T06:43:27.530Z,75712
2017-05-19T06:44:42.497Z,74336
2017-05-19T06:45:27.612Z,71456
2017-05-19T06:46:28.010Z,72864
2017-05-19T06:47:27.688Z,72960
2017-05-19T06:48:28.037Z,71136
2017-05-19T06:49:27.760Z,71040
2017-05-19T06:50:28.097Z,71040
2017-05-19T06:51:28.147Z,67616
2017-05-19T06:52:27.883Z,68032
2017-05-19T06:53:28.224Z,69920
2017-05-19T06:54:42.586Z,71040
2017-05-19T06:55:28.314Z,72032
2017-05-19T06:56:28.033Z,71584
2017-05-19T06:57:28.370Z,70336
2017-05-19T06:58:43.052Z,68320
2017-05-19T06:59:28.161Z,68896
2017-05-19T07:00:28.184Z,70944
2017-05-19T07:01:28.560Z,71200
2017-05-19T07:02:28.274Z,69888
2017-05-19T07:03:28.632Z,70688
2017-05-19T07:04:28.673Z,70560
2017-05-19T07:05:28.395Z,68384
2017-05-19T07:06:28.430Z,68064
2017-05-19T07:07:28.171Z,70080
2017-05-19T07:08:28.523Z,67840
2017-05-19T07:09:43.478Z,70080
2017-05-19T07:10:28.920Z,69696
2017-05-19T07:12:28.967Z,61280
2017-05-19T07:13:43.634Z,66432
2017-05-19T07:14:28.739Z,68640
2017-05-19T07:15:29.077Z,70208
2017-05-19T07:16:29.123Z,68256
2017-05-19T07:17:28.863Z,65792
2017-05-19T07:18:28.606Z,66624
2017-05-19T07:19:29.256Z,64640
2017-05-19T07:20:29.308Z,62240
2017-05-19T07:21:43.936Z,63424
2017-05-19T07:22:43.973Z,63328
2017-05-19T07:23:29.112Z,63232
2017-05-19T07:24:29.146Z,59168
2017-05-19T07:25:29.489Z,60448
2017-05-19T07:26:29.215Z,66784
2017-05-19T07:27:29.251Z,63040
2017-05-19T07:28:29.615Z,61216
2017-05-19T07:29:29.647Z,62784
2017-05-19T07:30:29.088Z,63424
2017-05-19T07:31:29.731Z,64160
2017-05-19T07:32:29.781Z,62848
2017-05-19T07:33:29.512Z,63008
2017-05-19T07:34:44.464Z,58592
2017-05-19T07:35:29.575Z,59520
2017-05-19T07:36:29.320Z,64352
2017-05-19T07:37:44.573Z,64416
2017-05-19T07:38:30.006Z,63584
2017-05-19T07:39:29.754Z,61440
2017-05-19T07:40:30.093Z,62560
2017-05-19T07:41:44.444Z,60128
2017-05-19T07:42:29.867Z,58848
2017-05-19T07:43:29.610Z,61024
2017-05-19T07:44:29.925Z,60512
2017-05-19T07:45:30.290Z,61120
2017-05-19T07:47:30.365Z,60576
2017-05-19T07:48:30.105Z,59456
2017-05-19T07:49:30.144Z,61120
2017-05-19T07:50:30.485Z,60512
2017-05-19T07:51:30.215Z,60416
2017-05-19T07:52:30.243Z,61024
2017-05-19T07:53:30.301Z,61504
2017-05-19T07:54:30.636Z,62208
2017-05-19T07:55:30.675Z,61248
2017-05-19T07:56:30.708Z,60992
2017-05-19T07:57:45.376Z,60608
2017-05-19T07:58:30.786Z,59648
2017-05-19T07:59:30.535Z,58752
2017-05-19T08:00:30.886Z,58976
2017-05-19T08:01:30.296Z,57696
2017-05-19T08:03:31.287Z,58240
2017-05-19T08:04:30.745Z,54176
2017-05-19T08:05:30.776Z,49088
2017-05-19T08:06:30.823Z,55200
2017-05-19T08:08:45.803Z,52672
2017-05-19T08:09:30.932Z,50880
2017-05-19T08:10:30.972Z,40384
2017-05-19T08:11:31.007Z,27616
2017-05-19T08:12:45.663Z,20736
2017-05-19T08:13:46.007Z,20000
2017-05-19T08:14:31.438Z,19840
2017-05-19T08:15:31.160Z,19488
2017-05-19T08:16:31.207Z,19328
2017-05-19T08:17:46.170Z,19136
2017-05-19T08:18:31.594Z,19104
2017-05-19T08:19:31.022Z,19008
2017-05-19T08:20:31.369Z,18912
2017-05-19T08:21:31.406Z,18816
2017-05-19T08:22:31.742Z,18720
2017-05-19T08:23:31.784Z,18688
2017-05-19T08:24:46.429Z,18592
2017-05-19T08:25:31.562Z,18528
2017-05-19T08:26:31.898Z,18464
2017-05-19T08:27:31.625Z,18336
2017-05-19T08:28:31.691Z,18272
2017-05-19T08:29:46.625Z,18208
2017-05-19T08:30:31.743Z,18144
2017-05-19T08:31:46.722Z,18080
2017-05-19T08:33:31.865Z,17952
2017-05-19T08:34:31.605Z,17888
2017-05-19T08:35:46.250Z,17760
2017-05-19T08:36:31.676Z,17824
2017-05-19T08:37:32.332Z,17760
2017-05-19T08:38:32.362Z,17664
2017-05-19T08:39:32.098Z,17456
2017-05-19T08:40:47.059Z,17280
2017-05-19T08:41:46.787Z,17260
2017-05-19T08:42:32.208Z,17284
2017-05-19T08:43:31.947Z,17224
2017-05-19T08:44:47.225Z,17028
2017-05-19T08:45:32.334Z,17064
2017-05-19T08:46:32.358Z,17036
2017-05-19T08:47:32.696Z,16860
2017-05-19T08:49:46.803Z,16704
2017-05-19T08:51:32.261Z,16552
2017-05-19T08:52:32.604Z,16420
2017-05-19T08:53:32.343Z,16444
2017-05-19T08:54:32.998Z,16440
2017-05-19T08:56:33.070Z,16388
2017-05-19T08:57:33.166Z,16396
2017-05-19T08:58:33.127Z,16344
2017-05-19T08:59:47.789Z,16248
2017-05-19T09:00:33.207Z,16176
2017-05-19T09:01:32.948Z,16120
2017-05-19T09:02:32.970Z,15952
2017-05-19T09:05:33.411Z,15860
2017-05-19T09:06:33.441Z,15852
2017-05-19T09:07:33.471Z,15732
2017-05-19T09:08:33.532Z,15640
2017-05-19T09:09:33.568Z,15500
2017-05-19T09:10:33.290Z,15544
2017-05-19T09:11:47.951Z,15492
2017-05-19T09:12:47.964Z,15440
2017-05-19T09:13:33.092Z,15376
2017-05-19T09:14:33.430Z,15324
2017-05-19T09:15:33.775Z,15252
2017-05-19T09:16:48.123Z,15204
2017-05-19T09:17:33.850Z,15108
2017-05-19T09:18:33.895Z,15084
2017-05-19T09:19:48.551Z,15000
2017-05-19T09:20:33.650Z,14960
2017-05-19T09:22:34.031Z,14868
2017-05-19T09:23:33.760Z,14820
2017-05-19T09:24:34.104Z,14792
2017-05-19T09:25:34.140Z,14660
2017-05-19T09:26:34.194Z,14616
2017-05-19T09:27:34.201Z,14608
2017-05-19T09:28:34.251Z,14600
2017-05-19T09:29:48.897Z,14476
2017-05-19T09:30:33.719Z,14372
2017-05-19T09:31:34.353Z,14376
2017-05-19T09:32:49.004Z,14264
2017-05-19T09:33:34.130Z,14208
2017-05-19T09:34:34.170Z,14124
2017-05-19T09:37:34.285Z,14036
2017-05-19T09:38:34.313Z,13944
2017-05-19T09:39:34.342Z,13968
2017-05-19T09:40:34.387Z,13948
2017-05-19T09:42:34.460Z,13912
2017-05-19T09:43:34.489Z,13844
2017-05-19T09:44:49.442Z,13772
2017-05-19T09:45:34.571Z,13700
2017-05-19T09:46:49.215Z,13640
2017-05-19T09:47:34.641Z,13620
2017-05-19T09:48:49.585Z,13576
2017-05-19T09:49:34.097Z,13536
2017-05-19T09:50:34.439Z,13496
2017-05-19T09:51:34.784Z,13504
2017-05-19T09:52:34.525Z,13388
2017-05-19T09:53:35.167Z,13316
2017-05-19T09:54:35.196Z,13216
2017-05-19T09:55:34.919Z,13208
2017-05-19T09:56:34.645Z,13216
2017-05-19T09:57:49.926Z,13212
2017-05-19T09:58:35.096Z,13244
2017-05-19T09:59:35.378Z,13152
2017-05-19T10:00:35.116Z,13152
2017-05-19T10:01:35.135Z,13136
2017-05-19T10:02:34.864Z,12944
2017-05-19T10:03:35.221Z,13124
2017-05-19T10:04:50.179Z,13068
2017-05-19T10:05:35.267Z,13008
2017-05-19T10:06:35.003Z,12976
2017-05-19T10:07:35.664Z,12960
2017-05-19T10:08:35.705Z,12876
2017-05-19T10:10:35.469Z,12540
2017-05-19T10:11:35.496Z,12456
2017-05-19T10:12:50.464Z,12516
2017-05-19T10:13:35.878Z,12444
2017-05-19T10:14:35.608Z,12452
2017-05-19T10:15:35.948Z,12396
2017-05-19T10:16:35.668Z,12464
2017-05-19T10:17:35.402Z,12512
2017-05-19T10:18:36.071Z,12400
2017-05-19T10:19:50.702Z,12284
2017-05-19T10:20:35.540Z,12248
2017-05-19T10:21:35.558Z,12176
2017-05-19T10:22:35.593Z,12036
2017-05-19T10:23:36.232Z,11976
2017-05-19T10:25:35.999Z,11928
2017-05-19T10:26:36.350Z,11912
2017-05-19T10:27:36.380Z,11916
2017-05-19T10:28:36.414Z,11912
2017-05-19T10:29:36.449Z,11812
2017-05-19T10:30:51.101Z,11788
2017-05-19T10:31:36.518Z,11780
2017-05-19T10:32:36.534Z,11720
2017-05-19T10:33:36.284Z,11652
2017-05-19T10:34:36.618Z,11660
2017-05-19T10:35:36.364Z,11588
2017-05-19T10:36:36.687Z,11524
2017-05-19T10:37:36.730Z,11448
2017-05-19T10:38:36.759Z,11352
2017-05-19T10:39:51.423Z,11348
2017-05-19T10:40:36.827Z,11312
2017-05-19T10:41:36.884Z,11272
2017-05-19T10:42:51.526Z,11208
2017-05-19T10:43:36.940Z,11124
2017-05-19T10:44:51.597Z,11012
2017-05-19T10:45:37.022Z,11028
2017-05-19T10:46:36.743Z,10992
2017-05-19T10:47:51.383Z,10840
2017-05-19T10:48:36.798Z,10820
2017-05-19T10:49:36.851Z,10800
2017-05-19T10:50:37.186Z,10756
2017-05-19T10:51:51.835Z,10720
2017-05-19T10:52:36.630Z,10668
2017-05-19T10:53:36.988Z,10640
2017-05-19T10:54:37.027Z,10572
2017-05-19T10:56:37.381Z,10540
2017-05-19T10:57:37.132Z,10476
2017-05-19T10:58:37.155Z,10460
2017-05-19T10:59:37.187Z,10352
2017-05-19T11:00:37.230Z,10384
2017-05-19T11:01:37.554Z,10296
2017-05-19T11:02:52.215Z,10272
2017-05-19T11:03:37.022Z,10300
2017-05-19T11:04:37.360Z,10180
2017-05-19T11:05:37.394Z,10080
2017-05-19T11:06:37.426Z,9936
2017-05-19T11:07:52.377Z,9684
2017-05-19T11:08:52.426Z,9560
2017-05-19T11:09:37.544Z,9344
2017-05-19T11:10:37.264Z,9124
2017-05-19T11:11:37.912Z,9004
2017-05-19T11:12:37.640Z,8900
2017-05-19T11:13:37.970Z,8780
2017-05-19T11:14:38.050Z,8684
2017-05-19T11:15:37.439Z,8548
2017-05-19T11:16:38.088Z,8492
2017-05-19T11:17:37.812Z,8376
2017-05-19T11:18:37.824Z,8172
2017-05-19T11:19:52.791Z,8096
2017-05-19T11:20:52.842Z,8004
2017-05-19T11:21:37.934Z,7936
2017-05-19T11:22:38.283Z,7880
2017-05-19T11:23:52.931Z,7772
2017-05-19T11:24:38.354Z,7668
2017-05-19T11:25:38.384Z,7540
2017-05-19T11:26:38.417Z,7452
2017-05-19T11:27:38.446Z,7356
2017-05-19T11:28:38.485Z,7260
2017-05-19T11:29:38.216Z,7192
2017-05-19T11:30:38.551Z,7168
2017-05-19T11:31:53.189Z,7100
2017-05-19T11:32:38.618Z,7052
2017-05-19T11:33:38.350Z,6984
2017-05-19T11:34:38.698Z,6864
2017-05-19T11:36:38.751Z,6828
2017-05-19T11:37:53.102Z,6760
2017-05-19T11:38:38.530Z,6700
2017-05-19T11:39:53.469Z,6696
2017-05-19T11:40:38.895Z,6708
2017-05-19T11:41:38.919Z,6692
2017-05-19T11:42:38.952Z,6660
2017-05-19T11:43:38.999Z,6620
2017-05-19T11:44:38.721Z,6572
2017-05-19T11:45:39.069Z,6528
2017-05-19T11:46:39.091Z,6508
2017-05-19T11:47:39.121Z,6464
2017-05-19T11:48:39.158Z,6452
2017-05-19T11:49:39.187Z,6440
2017-05-19T11:50:39.233Z,6408
2017-05-19T11:51:39.258Z,6412
2017-05-19T11:52:53.911Z,6384
2017-05-19T11:53:53.949Z,6340
2017-05-19T11:54:53.976Z,6336
2017-05-19T11:55:38.795Z,6332
2017-05-19T11:56:39.119Z,6364
2017-05-19T11:57:39.459Z,6392
2017-05-19T11:58:54.125Z,6400
2017-05-19T11:59:39.540Z,6436
2017-05-19T12:00:39.262Z,6424
2017-05-19T12:01:39.606Z,6452
2017-05-19T12:02:53.933Z,6468
2017-05-19T12:03:53.682Z,6468
2017-05-19T12:04:39.711Z,6460
2017-05-19T12:05:39.424Z,6456
2017-05-19T12:06:39.776Z,6460
2017-05-19T12:07:54.708Z,6396
2017-05-19T12:08:39.848Z,6364
2017-05-19T12:09:39.861Z,6384
2017-05-19T12:10:54.515Z,6484
2017-05-19T12:11:39.940Z,6492
2017-05-19T12:12:39.978Z,6444
2017-05-19T12:13:39.995Z,6404
2017-05-19T12:14:39.739Z,6404
2017-05-19T12:15:40.066Z,6368
2017-05-19T12:16:39.804Z,6372
2017-05-19T12:17:39.851Z,6408
2017-05-19T12:18:39.850Z,6432
2017-05-19T12:19:39.890Z,6412
2017-05-19T12:20:54.555Z,6424
2017-05-19T12:21:39.966Z,6396
2017-05-19T12:22:40.002Z,6376
2017-05-19T12:23:40.039Z,6396
2017-05-19T12:24:39.769Z,6396
2017-05-19T12:25:40.414Z,6420
2017-05-19T12:26:55.049Z,6416
2017-05-19T12:27:39.857Z,6420
2017-05-19T12:28:39.892Z,6412
2017-05-19T12:29:40.535Z,6440
2017-05-19T12:30:55.185Z,6456
2017-05-19T12:31:39.989Z,6448
2017-05-19T12:32:40.333Z,6476
2017-05-19T12:33:40.364Z,6504
2017-05-19T12:34:39.791Z,6500
2017-05-19T12:36:40.458Z,6488
2017-05-19T12:37:55.413Z,6504
2017-05-19T12:38:40.543Z,6500
2017-05-19T12:39:40.582Z,6540
2017-05-19T12:40:40.964Z,6544
2017-05-19T12:43:40.421Z,6508
2017-05-19T12:44:41.037Z,6444
2017-05-19T12:46:55.711Z,6448
2017-05-19T12:47:40.536Z,6452
2017-05-19T12:48:41.149Z,6480
2017-05-19T12:49:41.194Z,6500
2017-05-19T12:50:41.233Z,6520
2017-05-19T12:51:41.249Z,6504
2017-05-19T12:52:41.286Z,6500
2017-05-19T12:53:40.727Z,6560
2017-05-19T12:54:55.666Z,6528
2017-05-19T12:55:41.411Z,6540
2017-05-19T12:56:41.433Z,6536
2017-05-19T12:57:41.155Z,6484
2017-05-19T12:58:56.109Z,6460
2017-05-19T12:59:41.545Z,6480
2017-05-19T13:00:41.555Z,6476
2017-05-19T13:01:41.594Z,6452
2017-05-19T13:02:41.326Z,6484
2017-05-19T13:03:41.654Z,6488
2017-05-19T13:04:41.689Z,6508
2017-05-19T13:05:41.745Z,6536
2017-05-19T13:06:41.455Z,6696
2017-05-19T13:07:41.802Z,6736
2017-05-19T13:08:41.826Z,6740
2017-05-19T13:09:41.874Z,6736
2017-05-19T13:10:41.889Z,6672
2017-05-19T13:11:56.541Z,6660
2017-05-19T13:12:42.014Z,6600
2017-05-19T13:13:56.605Z,6644
2017-05-19T13:14:56.329Z,6744
2017-05-19T13:15:56.672Z,6740
2017-05-19T13:16:41.486Z,6712
2017-05-19T13:17:41.516Z,6732
2017-05-19T13:18:42.148Z,6708
2017-05-19T13:19:42.198Z,6712
2017-05-19T13:20:42.226Z,6792
2017-05-19T13:21:42.241Z,6768
2017-05-19T13:22:41.974Z,6800
2017-05-19T13:23:42.013Z,6668
2017-05-19T13:24:42.358Z,6628
2017-05-19T13:25:42.404Z,6616
2017-05-19T13:26:57.036Z,6624
2017-05-19T13:27:42.453Z,6616
2017-05-19T13:28:42.476Z,6640
2017-05-19T13:29:56.830Z,6728
2017-05-19T13:30:42.546Z,6776
2017-05-19T13:31:42.577Z,6868
2017-05-19T13:32:57.231Z,6840
2017-05-19T13:33:42.670Z,6868
2017-05-19T13:34:42.687Z,6944
2017-05-19T13:35:42.719Z,6884
2017-05-19T13:36:42.451Z,6800
2017-05-19T13:37:42.792Z,6776
2017-05-19T13:38:42.516Z,6620
2017-05-19T13:39:42.548Z,6676
2017-05-19T13:40:42.942Z,6636
2017-05-19T13:41:42.610Z,6632
2017-05-19T13:42:42.647Z,6608
2017-05-19T13:43:42.990Z,6664
2017-05-19T13:44:42.708Z,6596
2017-05-19T13:45:42.758Z,6596
2017-05-19T13:46:57.692Z,6564
2017-05-19T13:47:43.123Z,6640
2017-05-19T13:48:42.544Z,6580
2017-05-19T13:49:42.563Z,6552
2017-05-19T13:50:43.209Z,6528
2017-05-19T13:52:43.275Z,6532
2017-05-19T13:53:43.317Z,6504
2017-05-19T13:54:43.343Z,6568
2017-05-19T13:55:43.067Z,6504
2017-05-19T13:56:43.423Z,6564
2017-05-19T13:59:43.206Z,6640
2017-05-19T14:00:43.246Z,6728
2017-05-19T14:01:58.183Z,6704
2017-05-19T14:02:43.316Z,6612
2017-05-19T14:03:43.642Z,6600
2017-05-19T14:04:43.677Z,6640
2017-05-19T14:05:43.692Z,6656
2017-05-19T14:06:43.743Z,6632
2017-05-19T14:07:43.775Z,6600
2017-05-19T14:08:43.808Z,6620
2017-05-19T14:09:43.229Z,6576
2017-05-19T14:10:43.861Z,6628
2017-05-19T14:11:43.902Z,6640
2017-05-19T14:12:43.937Z,6660
2017-05-19T14:13:43.381Z,6676
2017-05-19T14:14:43.687Z,6684
2017-05-19T14:15:44.050Z,6544